Aberdeen, Washington
Current Conditions -  °F | °C
As of 3:24 PM on Sunday 21 Dec 2014 (Local Time) from KHQM Reporting Station
Haze Haze  
Wind Chill: 53°   Ceiling: Unl
Heat Index: 53°   Visibility: 4mi
Dew Point: 50°   Wind: 9mph
Humidity: 89%   Direction: 240°WSW
Pressure: 30.06"   Gusts: NA
Location:  46.98°N, 123.81°W
Report Text: KHQM 212324Z AUTO 24008KT 4SM BR SCT022 SCT100 12/10 A3006 RMK AO2 T01170100
Loading
Personal Weather Stations






























Interactive Weather Map New forecast layout! Learn more

10-Day Weather Forecast

Advertisements
Track Severe Weather on mobile